sensor_id;sensor_type;location;lat;lon;timestamp;temperature;humidity
73643;DHT22;61938;48.652;9.292;2023-06-26T00:02:17;17.60;99.90
73643;DHT22;61938;48.652;9.292;2023-06-26T00:04:43;17.60;99.90
73643;DHT22;61938;48.652;9.292;2023-06-26T00:07:10;17.50;99.90
73643;DHT22;61938;48.652;9.292;2023-06-26T00:09:35;17.50;99.90
73643;DHT22;61938;48.652;9.292;2023-06-26T00:12:01;17.40;99.90
73643;DHT22;61938;48.652;9.292;2023-06-26T00:14:27;17.40;99.90
73643;DHT22;61938;48.652;9.292;2023-06-26T00:16:52;17.30;99.90
73643;DHT22;61938;48.652;9.292;2023-06-26T00:19:18;17.30;99.90
73643;DHT22;61938;48.652;9.292;2023-06-26T00:21:44;17.20;99.90
73643;DHT22;61938;48.652;9.292;2023-06-26T00:24:12;17.30;99.90
73643;DHT22;61938;48.652;9.292;2023-06-26T00:26:38;17.20;99.90
73643;DHT22;61938;48.652;9.292;2023-06-26T00:29:03;17.10;99.90
73643;DHT22;61938;48.652;9.292;2023-06-26T00:31:30;17.10;99.90
73643;DHT22;61938;48.652;9.292;2023-06-26T00:33:55;17.00;99.90
73643;DHT22;61938;48.652;9.292;2023-06-26T00:36:21;17.00;99.90
73643;DHT22;61938;48.652;9.292;2023-06-26T00:38:48;17.00;99.90
73643;DHT22;61938;48.652;9.292;2023-06-26T00:41:13;16.90;99.90
73643;DHT22;61938;48.652;9.292;2023-06-26T00:43:39;16.90;99.90
73643;DHT22;61938;48.652;9.292;2023-06-26T00:46:12;16.80;99.90
73643;DHT22;61938;48.652;9.292;2023-06-26T00:48:39;16.80;99.90
73643;DHT22;61938;48.652;9.292;2023-06-26T00:51:05;16.80;99.90
73643;DHT22;61938;48.652;9.292;2023-06-26T00:53:31;16.70;99.90
73643;DHT22;61938;48.652;9.292;2023-06-26T00:55:57;16.60;99.90
73643;DHT22;61938;48.652;9.292;2023-06-26T00:58:24;16.60;99.90
73643;DHT22;61938;48.652;9.292;2023-06-26T01:00:51;16.50;99.90
73643;DHT22;61938;48.652;9.292;2023-06-26T01:03:16;16.50;99.90
73643;DHT22;61938;48.652;9.292;2023-06-26T01:05:42;16.50;99.90
73643;DHT22;61938;48.652;9.292;2023-06-26T01:08:12;16.60;99.90
73643;DHT22;61938;48.652;9.292;2023-06-26T01:10:39;16.50;99.90
73643;DHT22;61938;48.652;9.292;2023-06-26T01:13:05;16.50;99.90
73643;DHT22;61938;48.652;9.292;2023-06-26T01:15:31;16.50;99.90
73643;DHT22;61938;48.652;9.292;2023-06-26T01:17:57;16.50;99.90
73643;DHT22;61938;48.652;9.292;2023-06-26T01:20:25;16.40;99.90
73643;DHT22;61938;48.652;9.292;2023-06-26T01:23:05;16.40;99.90
73643;DHT22;61938;48.652;9.292;2023-06-26T01:25:56;16.40;99.90
73643;DHT22;61938;48.652;9.292;2023-06-26T01:28:27;16.40;99.90
73643;DHT22;61938;48.652;9.292;2023-06-26T01:30:53;16.40;99.90
73643;DHT22;61938;48.652;9.292;2023-06-26T01:33:20;16.30;99.90
73643;DHT22;61938;48.652;9.292;2023-06-26T01:35:45;16.30;99.90
73643;DHT22;61938;48.652;9.292;2023-06-26T01:38:16;16.30;99.90
73643;DHT22;61938;48.652;9.292;2023-06-26T01:40:42;16.40;99.90
73643;DHT22;61938;48.652;9.292;2023-06-26T01:43:15;16.30;99.90
73643;DHT22;61938;48.652;9.292;2023-06-26T01:45:46;16.30;99.90
73643;DHT22;61938;48.652;9.292;2023-06-26T01:48:13;16.30;99.90
73643;DHT22;61938;48.652;9.292;2023-06-26T01:50:40;16.30;99.90
73643;DHT22;61938;48.652;9.292;2023-06-26T01:53:10;16.20;99.90
73643;DHT22;61938;48.652;9.292;2023-06-26T01:55:47;16.20;99.90
73643;DHT22;61938;48.652;9.292;2023-06-26T01:58:15;16.20;99.90
73643;DHT22;61938;48.652;9.292;2023-06-26T02:00:42;16.10;99.90
73643;DHT22;61938;48.652;9.292;2023-06-26T02:03:08;16.10;99.90
73643;DHT22;61938;48.652;9.292;2023-06-26T02:05:34;16.10;99.90
73643;DHT22;61938;48.652;9.292;2023-06-26T02:08:00;16.10;99.90
73643;DHT22;61938;48.652;9.292;2023-06-26T02:10:27;16.10;99.90
73643;DHT22;61938;48.652;9.292;2023-06-26T02:12:52;16.10;99.90
73643;DHT22;61938;48.652;9.292;2023-06-26T02:15:18;16.20;99.90
73643;DHT22;61938;48.652;9.292;2023-06-26T02:17:43;16.20;99.90
73643;DHT22;61938;48.652;9.292;2023-06-26T02:20:14;16.30;99.90
73643;DHT22;61938;48.652;9.292;2023-06-26T02:22:39;16.30;99.90
73643;DHT22;61938;48.652;9.292;2023-06-26T02:25:05;16.30;99.90
73643;DHT22;61938;48.652;9.292;2023-06-26T02:27:31;16.30;99.90
73643;DHT22;61938;48.652;9.292;2023-06-26T02:29:56;16.30;99.90
73643;DHT22;61938;48.652;9.292;2023-06-26T02:32:22;16.30;99.90
73643;DHT22;61938;48.652;9.292;2023-06-26T02:34:47;16.30;99.90
73643;DHT22;61938;48.652;9.292;2023-06-26T02:37:13;16.20;99.90
73643;DHT22;61938;48.652;9.292;2023-06-26T02:39:39;16.20;99.90
73643;DHT22;61938;48.652;9.292;2023-06-26T02:42:04;16.10;99.90
73643;DHT22;61938;48.652;9.292;2023-06-26T02:44:30;16.00;99.90
73643;DHT22;61938;48.652;9.292;2023-06-26T02:46:56;15.90;99.90
73643;DHT22;61938;48.652;9.292;2023-06-26T02:49:21;15.80;99.90
73643;DHT22;61938;48.652;9.292;2023-06-26T02:51:46;15.70;99.90
73643;DHT22;61938;48.652;9.292;2023-06-26T02:54:12;15.70;99.90
73643;DHT22;61938;48.652;9.292;2023-06-26T02:56:38;15.60;99.90
73643;DHT22;61938;48.652;9.292;2023-06-26T02:59:03;15.60;99.90
73643;DHT22;61938;48.652;9.292;2023-06-26T03:01:29;15.60;99.90
73643;DHT22;61938;48.652;9.292;2023-06-26T03:03:54;15.60;99.90
73643;DHT22;61938;48.652;9.292;2023-06-26T03:06:20;15.60;99.90
73643;DHT22;61938;48.652;9.292;2023-06-26T03:08:46;15.60;99.90
73643;DHT22;61938;48.652;9.292;2023-06-26T03:11:11;15.60;99.90
73643;DHT22;61938;48.652;9.292;2023-06-26T03:13:38;15.50;99.90
73643;DHT22;61938;48.652;9.292;2023-06-26T03:16:04;15.50;99.90
73643;DHT22;61938;48.652;9.292;2023-06-26T03:18:30;15.40;99.90
73643;DHT22;61938;48.652;9.292;2023-06-26T03:20:56;15.40;99.90
73643;DHT22;61938;48.652;9.292;2023-06-26T03:23:22;15.40;99.90
73643;DHT22;61938;48.652;9.292;2023-06-26T03:25:48;15.40;99.90
73643;DHT22;61938;48.652;9.292;2023-06-26T03:28:14;15.40;99.90
73643;DHT22;61938;48.652;9.292;2023-06-26T03:30:40;15.30;99.90
73643;DHT22;61938;48.652;9.292;2023-06-26T03:33:05;15.30;99.90
73643;DHT22;61938;48.652;9.292;2023-06-26T03:35:31;15.30;99.90
73643;DHT22;61938;48.652;9.292;2023-06-26T03:37:57;15.30;99.90
73643;DHT22;61938;48.652;9.292;2023-06-26T03:40:23;15.30;99.90
73643;DHT22;61938;48.652;9.292;2023-06-26T03:42:48;15.20;99.90
73643;DHT22;61938;48.652;9.292;2023-06-26T03:45:14;15.20;99.90
73643;DHT22;61938;48.652;9.292;2023-06-26T03:47:39;15.20;99.90
73643;DHT22;61938;48.652;9.292;2023-06-26T03:50:05;15.20;99.90
73643;DHT22;61938;48.652;9.292;2023-06-26T03:52:31;15.20;99.90
73643;DHT22;61938;48.652;9.292;2023-06-26T03:54:59;15.30;99.90
73643;DHT22;61938;48.652;9.292;2023-06-26T03:57:25;15.20;99.90
73643;DHT22;61938;48.652;9.292;2023-06-26T03:59:52;15.20;99.90
73643;DHT22;61938;48.652;9.292;2023-06-26T04:02:17;15.30;99.90
73643;DHT22;61938;48.652;9.292;2023-06-26T04:04:43;15.30;99.90
73643;DHT22;61938;48.652;9.292;2023-06-26T04:07:09;15.30;99.90
73643;DHT22;61938;48.652;9.292;2023-06-26T04:09:34;15.30;99.90
73643;DHT22;61938;48.652;9.292;2023-06-26T04:12:00;15.40;99.90
73643;DHT22;61938;48.652;9.292;2023-06-26T04:14:26;15.40;99.90
73643;DHT22;61938;48.652;9.292;2023-06-26T04:16:51;15.50;99.90
73643;DHT22;61938;48.652;9.292;2023-06-26T04:19:17;15.60;99.90
73643;DHT22;61938;48.652;9.292;2023-06-26T04:21:42;15.60;99.90
73643;DHT22;61938;48.652;9.292;2023-06-26T04:24:08;15.80;99.90
73643;DHT22;61938;48.652;9.292;2023-06-26T04:26:34;15.80;99.90
73643;DHT22;61938;48.652;9.292;2023-06-26T04:29:00;15.90;99.90
73643;DHT22;61938;48.652;9.292;2023-06-26T04:31:25;16.00;99.90
73643;DHT22;61938;48.652;9.292;2023-06-26T04:33:51;16.10;99.90
73643;DHT22;61938;48.652;9.292;2023-06-26T04:36:20;16.20;99.90
73643;DHT22;61938;48.652;9.292;2023-06-26T04:38:45;16.30;99.90
73643;DHT22;61938;48.652;9.292;2023-06-26T04:41:11;16.40;99.90
73643;DHT22;61938;48.652;9.292;2023-06-26T04:43:36;16.50;99.90
73643;DHT22;61938;48.652;9.292;2023-06-26T04:46:02;16.60;99.90
73643;DHT22;61938;48.652;9.292;2023-06-26T04:48:28;16.70;99.90
73643;DHT22;61938;48.652;9.292;2023-06-26T04:50:55;16.90;99.90
73643;DHT22;61938;48.652;9.292;2023-06-26T04:53:21;17.00;99.90
73643;DHT22;61938;48.652;9.292;2023-06-26T04:55:51;17.10;99.90
73643;DHT22;61938;48.652;9.292;2023-06-26T04:58:17;17.20;99.90
73643;DHT22;61938;48.652;9.292;2023-06-26T05:00:43;17.30;99.90
73643;DHT22;61938;48.652;9.292;2023-06-26T05:03:13;17.50;99.90
73643;DHT22;61938;48.652;9.292;2023-06-26T05:05:38;17.60;99.90
73643;DHT22;61938;48.652;9.292;2023-06-26T05:08:17;17.80;99.90
73643;DHT22;61938;48.652;9.292;2023-06-26T05:10:43;17.90;99.90
73643;DHT22;61938;48.652;9.292;2023-06-26T05:13:09;18.10;99.90
73643;DHT22;61938;48.652;9.292;2023-06-26T05:15:35;18.20;99.90
73643;DHT22;61938;48.652;9.292;2023-06-26T05:18:00;18.30;99.90
73643;DHT22;61938;48.652;9.292;2023-06-26T05:20:25;18.50;99.90
73643;DHT22;61938;48.652;9.292;2023-06-26T05:22:51;18.60;99.90
73643;DHT22;61938;48.652;9.292;2023-06-26T05:25:18;18.70;99.90
73643;DHT22;61938;48.652;9.292;2023-06-26T05:27:47;18.80;99.90
73643;DHT22;61938;48.652;9.292;2023-06-26T05:30:13;19.00;99.90
73643;DHT22;61938;48.652;9.292;2023-06-26T05:32:40;19.10;99.90
73643;DHT22;61938;48.652;9.292;2023-06-26T05:35:06;19.30;99.90
73643;DHT22;61938;48.652;9.292;2023-06-26T05:37:33;19.40;99.90
73643;DHT22;61938;48.652;9.292;2023-06-26T05:40:00;19.50;99.90
73643;DHT22;61938;48.652;9.292;2023-06-26T05:42:27;19.50;99.90
73643;DHT22;61938;48.652;9.292;2023-06-26T05:44:53;19.70;99.90
73643;DHT22;61938;48.652;9.292;2023-06-26T05:47:19;19.80;99.90
73643;DHT22;61938;48.652;9.292;2023-06-26T05:49:44;19.90;99.90
73643;DHT22;61938;48.652;9.292;2023-06-26T05:52:10;20.10;99.90
73643;DHT22;61938;48.652;9.292;2023-06-26T05:54:36;20.20;99.90
73643;DHT22;61938;48.652;9.292;2023-06-26T05:57:03;20.30;99.90
73643;DHT22;61938;48.652;9.292;2023-06-26T05:59:31;20.50;99.90
73643;DHT22;61938;48.652;9.292;2023-06-26T06:01:57;20.70;99.90
73643;DHT22;61938;48.652;9.292;2023-06-26T06:04:22;20.80;99.90
73643;DHT22;61938;48.652;9.292;2023-06-26T06:06:48;21.00;99.90
73643;DHT22;61938;48.652;9.292;2023-06-26T06:09:13;21.00;99.90
73643;DHT22;61938;48.652;9.292;2023-06-26T06:11:39;21.20;99.90
73643;DHT22;61938;48.652;9.292;2023-06-26T06:14:05;21.30;99.90
73643;DHT22;61938;48.652;9.292;2023-06-26T06:16:30;21.60;99.90
73643;DHT22;61938;48.652;9.292;2023-06-26T06:18:56;21.80;99.90
73643;DHT22;61938;48.652;9.292;2023-06-26T06:21:21;22.00;99.90
73643;DHT22;61938;48.652;9.292;2023-06-26T06:23:47;22.30;99.90
73643;DHT22;61938;48.652;9.292;2023-06-26T06:26:12;22.60;99.90
73643;DHT22;61938;48.652;9.292;2023-06-26T06:28:38;22.60;99.90
73643;DHT22;61938;48.652;9.292;2023-06-26T06:31:04;22.70;99.90
73643;DHT22;61938;48.652;9.292;2023-06-26T06:33:30;23.00;99.90
73643;DHT22;61938;48.652;9.292;2023-06-26T06:35:55;23.10;99.90
73643;DHT22;61938;48.652;9.292;2023-06-26T06:38:21;23.30;99.90
73643;DHT22;61938;48.652;9.292;2023-06-26T06:40:46;23.30;99.90
73643;DHT22;61938;48.652;9.292;2023-06-26T06:43:12;23.40;99.90
73643;DHT22;61938;48.652;9.292;2023-06-26T06:45:37;23.70;99.90
73643;DHT22;61938;48.652;9.292;2023-06-26T06:48:04;24.70;99.90
73643;DHT22;61938;48.652;9.292;2023-06-26T06:50:29;23.80;99.90
73643;DHT22;61938;48.652;9.292;2023-06-26T06:52:55;23.90;99.90
73643;DHT22;61938;48.652;9.292;2023-06-26T06:55:20;24.20;99.90
73643;DHT22;61938;48.652;9.292;2023-06-26T06:57:46;24.40;99.90
73643;DHT22;61938;48.652;9.292;2023-06-26T07:00:12;24.70;99.90
73643;DHT22;61938;48.652;9.292;2023-06-26T07:02:41;24.90;99.90
73643;DHT22;61938;48.652;9.292;2023-06-26T07:05:07;24.80;99.90
73643;DHT22;61938;48.652;9.292;2023-06-26T07:07:33;25.00;99.90
73643;DHT22;61938;48.652;9.292;2023-06-26T07:10:01;25.00;99.90
73643;DHT22;61938;48.652;9.292;2023-06-26T07:12:27;25.30;99.90
73643;DHT22;61938;48.652;9.292;2023-06-26T07:14:52;25.50;99.90
73643;DHT22;61938;48.652;9.292;2023-06-26T07:17:19;25.50;99.90
73643;DHT22;61938;48.652;9.292;2023-06-26T07:19:45;25.50;99.90
73643;DHT22;61938;48.652;9.292;2023-06-26T07:22:10;25.70;99.90
73643;DHT22;61938;48.652;9.292;2023-06-26T07:24:36;25.70;99.90
73643;DHT22;61938;48.652;9.292;2023-06-26T07:27:02;25.90;99.90
73643;DHT22;61938;48.652;9.292;2023-06-26T07:29:27;26.00;99.90
73643;DHT22;61938;48.652;9.292;2023-06-26T07:31:53;25.90;99.90
73643;DHT22;61938;48.652;9.292;2023-06-26T07:34:18;26.60;99.90
73643;DHT22;61938;48.652;9.292;2023-06-26T07:36:44;26.90;99.90
73643;DHT22;61938;48.652;9.292;2023-06-26T07:39:09;27.10;99.90
73643;DHT22;61938;48.652;9.292;2023-06-26T07:41:34;27.40;99.90
73643;DHT22;61938;48.652;9.292;2023-06-26T07:44:00;27.70;99.90
73643;DHT22;61938;48.652;9.292;2023-06-26T07:46:25;27.80;99.90
73643;DHT22;61938;48.652;9.292;2023-06-26T07:48:51;28.00;99.90
73643;DHT22;61938;48.652;9.292;2023-06-26T07:51:16;28.30;99.90
73643;DHT22;61938;48.652;9.292;2023-06-26T07:53:42;28.50;99.90
73643;DHT22;61938;48.652;9.292;2023-06-26T07:56:07;28.80;99.90
73643;DHT22;61938;48.652;9.292;2023-06-26T07:58:33;28.70;99.90
73643;DHT22;61938;48.652;9.292;2023-06-26T08:00:58;28.90;99.90
73643;DHT22;61938;48.652;9.292;2023-06-26T08:03:24;29.20;97.60
73643;DHT22;61938;48.652;9.292;2023-06-26T08:05:49;29.10;96.90
73643;DHT22;61938;48.652;9.292;2023-06-26T08:08:15;29.10;97.30
73643;DHT22;61938;48.652;9.292;2023-06-26T08:10:41;29.30;96.00
73643;DHT22;61938;48.652;9.292;2023-06-26T08:13:06;29.50;95.30
73643;DHT22;61938;48.652;9.292;2023-06-26T08:15:32;29.90;95.40
73643;DHT22;61938;48.652;9.292;2023-06-26T08:17:57;30.00;93.20
73643;DHT22;61938;48.652;9.292;2023-06-26T08:20:23;30.40;93.00
73643;DHT22;61938;48.652;9.292;2023-06-26T08:22:48;30.50;91.20
73643;DHT22;61938;48.652;9.292;2023-06-26T08:25:17;30.50;91.20
73643;DHT22;61938;48.652;9.292;2023-06-26T08:27:43;30.70;88.40
73643;DHT22;61938;48.652;9.292;2023-06-26T08:30:09;30.90;89.70
73643;DHT22;61938;48.652;9.292;2023-06-26T08:32:35;30.90;86.00
73643;DHT22;61938;48.652;9.292;2023-06-26T08:35:00;31.10;86.10
73643;DHT22;61938;48.652;9.292;2023-06-26T08:37:25;31.20;87.10
73643;DHT22;61938;48.652;9.292;2023-06-26T08:39:51;31.30;82.70
73643;DHT22;61938;48.652;9.292;2023-06-26T08:42:16;31.40;82.80
73643;DHT22;61938;48.652;9.292;2023-06-26T08:44:42;31.50;83.20
73643;DHT22;61938;48.652;9.292;2023-06-26T08:47:09;31.50;83.70
73643;DHT22;61938;48.652;9.292;2023-06-26T08:49:53;31.80;83.50
73643;DHT22;61938;48.652;9.292;2023-06-26T08:52:25;32.00;80.20
73643;DHT22;61938;48.652;9.292;2023-06-26T08:54:58;32.00;78.00
73643;DHT22;61938;48.652;9.292;2023-06-26T08:57:25;31.80;79.20
73643;DHT22;61938;48.652;9.292;2023-06-26T08:59:52;31.80;80.00
73643;DHT22;61938;48.652;9.292;2023-06-26T09:02:18;31.80;75.10
73643;DHT22;61938;48.652;9.292;2023-06-26T09:04:43;31.80;76.90
73643;DHT22;61938;48.652;9.292;2023-06-26T09:07:09;31.90;77.00
73643;DHT22;61938;48.652;9.292;2023-06-26T09:09:35;32.10;75.70
73643;DHT22;61938;48.652;9.292;2023-06-26T09:12:02;32.00;74.70
73643;DHT22;61938;48.652;9.292;2023-06-26T09:14:29;32.00;74.90
73643;DHT22;61938;48.652;9.292;2023-06-26T09:16:55;32.00;76.50
73643;DHT22;61938;48.652;9.292;2023-06-26T09:19:20;32.30;73.00
73643;DHT22;61938;48.652;9.292;2023-06-26T09:21:49;32.40;73.50
73643;DHT22;61938;48.652;9.292;2023-06-26T09:24:16;32.50;71.70
73643;DHT22;61938;48.652;9.292;2023-06-26T09:26:42;32.40;72.30
73643;DHT22;61938;48.652;9.292;2023-06-26T09:29:09;32.40;71.00
73643;DHT22;61938;48.652;9.292;2023-06-26T09:31:38;32.20;71.90
73643;DHT22;61938;48.652;9.292;2023-06-26T09:34:04;32.40;73.60
73643;DHT22;61938;48.652;9.292;2023-06-26T09:36:31;32.40;72.80
73643;DHT22;61938;48.652;9.292;2023-06-26T09:39:05;32.30;71.30
73643;DHT22;61938;48.652;9.292;2023-06-26T09:41:34;32.10;71.80
73643;DHT22;61938;48.652;9.292;2023-06-26T09:44:01;31.90;71.60
73643;DHT22;61938;48.652;9.292;2023-06-26T09:46:31;31.50;69.80
73643;DHT22;61938;48.652;9.292;2023-06-26T09:49:07;31.90;73.70
73643;DHT22;61938;48.652;9.292;2023-06-26T09:51:34;31.80;71.00
73643;DHT22;61938;48.652;9.292;2023-06-26T09:54:01;31.60;72.00
73643;DHT22;61938;48.652;9.292;2023-06-26T09:56:28;31.40;71.50
73643;DHT22;61938;48.652;9.292;2023-06-26T09:58:56;31.50;73.90
73643;DHT22;61938;48.652;9.292;2023-06-26T10:01:23;31.50;72.30
73643;DHT22;61938;48.652;9.292;2023-06-26T10:03:48;31.40;72.40
73643;DHT22;61938;48.652;9.292;2023-06-26T10:06:15;31.80;70.30
73643;DHT22;61938;48.652;9.292;2023-06-26T10:08:43;31.60;69.60
73643;DHT22;61938;48.652;9.292;2023-06-26T10:11:13;31.20;67.90
73643;DHT22;61938;48.652;9.292;2023-06-26T10:13:43;31.00;69.10
73643;DHT22;61938;48.652;9.292;2023-06-26T10:16:11;31.40;69.90
73643;DHT22;61938;48.652;9.292;2023-06-26T10:18:39;31.70;70.40
73643;DHT22;61938;48.652;9.292;2023-06-26T10:21:06;31.50;65.70
73643;DHT22;61938;48.652;9.292;2023-06-26T10:23:34;31.30;68.20
73643;DHT22;61938;48.652;9.292;2023-06-26T10:26:01;31.20;68.70
73643;DHT22;61938;48.652;9.292;2023-06-26T10:28:28;31.10;69.10
73643;DHT22;61938;48.652;9.292;2023-06-26T10:30:55;30.80;67.10
73643;DHT22;61938;48.652;9.292;2023-06-26T10:33:22;30.60;68.80
73643;DHT22;61938;48.652;9.292;2023-06-26T10:35:47;31.90;70.60
73643;DHT22;61938;48.652;9.292;2023-06-26T10:38:13;30.50;70.00
73643;DHT22;61938;48.652;9.292;2023-06-26T10:40:46;30.30;69.00
73643;DHT22;61938;48.652;9.292;2023-06-26T10:43:15;30.20;69.50
73643;DHT22;61938;48.652;9.292;2023-06-26T10:45:48;30.20;69.80
73643;DHT22;61938;48.652;9.292;2023-06-26T10:48:21;30.00;69.20
73643;DHT22;61938;48.652;9.292;2023-06-26T10:50:48;30.40;70.70
73643;DHT22;61938;48.652;9.292;2023-06-26T10:56:04;30.60;73.00
73643;DHT22;61938;48.652;9.292;2023-06-26T10:58:31;30.80;74.00
73643;DHT22;61938;48.652;9.292;2023-06-26T11:01:26;31.00;73.10
73643;DHT22;61938;48.652;9.292;2023-06-26T11:04:07;30.90;72.60
73643;DHT22;61938;48.652;9.292;2023-06-26T11:06:34;30.60;72.40
73643;DHT22;61938;48.652;9.292;2023-06-26T11:14:18;30.20;76.70
73643;DHT22;61938;48.652;9.292;2023-06-26T11:16:43;30.20;78.00
73643;DHT22;61938;48.652;9.292;2023-06-26T11:19:13;30.30;77.70
73643;DHT22;61938;48.652;9.292;2023-06-26T11:21:40;30.40;78.00
73643;DHT22;61938;48.652;9.292;2023-06-26T11:24:13;30.90;78.60
73643;DHT22;61938;48.652;9.292;2023-06-26T11:26:42;31.70;78.90
73643;DHT22;61938;48.652;9.292;2023-06-26T11:29:08;31.80;75.30
73643;DHT22;61938;48.652;9.292;2023-06-26T11:31:38;31.70;75.20
73643;DHT22;61938;48.652;9.292;2023-06-26T11:34:11;32.00;73.90
73643;DHT22;61938;48.652;9.292;2023-06-26T11:36:38;32.20;76.00
73643;DHT22;61938;48.652;9.292;2023-06-26T11:39:05;32.50;72.50
73643;DHT22;61938;48.652;9.292;2023-06-26T11:41:32;32.90;74.50
73643;DHT22;61938;48.652;9.292;2023-06-26T11:44:08;33.20;73.50
73643;DHT22;61938;48.652;9.292;2023-06-26T11:46:39;33.20;70.30
73643;DHT22;61938;48.652;9.292;2023-06-26T11:49:08;33.20;71.20
73643;DHT22;61938;48.652;9.292;2023-06-26T11:51:34;32.90;67.60
73643;DHT22;61938;48.652;9.292;2023-06-26T11:54:02;32.70;67.70
73643;DHT22;61938;48.652;9.292;2023-06-26T11:56:30;32.70;68.80
73643;DHT22;61938;48.652;9.292;2023-06-26T11:59:08;32.70;69.30
73643;DHT22;61938;48.652;9.292;2023-06-26T12:01:39;32.10;67.90
73643;DHT22;61938;48.652;9.292;2023-06-26T12:04:07;32.40;69.70
73643;DHT22;61938;48.652;9.292;2023-06-26T12:06:35;32.80;71.10
73643;DHT22;61938;48.652;9.292;2023-06-26T12:09:03;33.30;69.70
73643;DHT22;61938;48.652;9.292;2023-06-26T12:11:32;33.40;69.90
73643;DHT22;61938;48.652;9.292;2023-06-26T12:13:59;33.40;68.90
73643;DHT22;61938;48.652;9.292;2023-06-26T12:16:25;33.00;67.10
73643;DHT22;61938;48.652;9.292;2023-06-26T12:18:51;32.20;66.10
73643;DHT22;61938;48.652;9.292;2023-06-26T12:21:44;31.90;68.80
73643;DHT22;61938;48.652;9.292;2023-06-26T12:24:13;31.80;70.30
73643;DHT22;61938;48.652;9.292;2023-06-26T12:26:42;31.60;69.20
73643;DHT22;61938;48.652;9.292;2023-06-26T12:29:13;31.70;71.10
73643;DHT22;61938;48.652;9.292;2023-06-26T12:31:51;31.60;69.60
73643;DHT22;61938;48.652;9.292;2023-06-26T12:34:20;31.40;70.40
73643;DHT22;61938;48.652;9.292;2023-06-26T12:36:47;31.10;71.90
73643;DHT22;61938;48.652;9.292;2023-06-26T12:39:16;30.90;71.70
73643;DHT22;61938;48.652;9.292;2023-06-26T12:41:55;31.00;73.60
73643;DHT22;61938;48.652;9.292;2023-06-26T12:44:23;31.40;74.30
73643;DHT22;61938;48.652;9.292;2023-06-26T12:46:54;31.40;73.40
73643;DHT22;61938;48.652;9.292;2023-06-26T12:49:20;31.00;73.30
73643;DHT22;61938;48.652;9.292;2023-06-26T12:51:47;30.90;73.50
73643;DHT22;61938;48.652;9.292;2023-06-26T12:54:13;31.40;75.40
73643;DHT22;61938;48.652;9.292;2023-06-26T12:56:38;31.80;74.80
73643;DHT22;61938;48.652;9.292;2023-06-26T12:59:04;31.80;74.70
73643;DHT22;61938;48.652;9.292;2023-06-26T13:01:29;31.70;73.70
73643;DHT22;61938;48.652;9.292;2023-06-26T13:03:55;32.00;74.30
73643;DHT22;61938;48.652;9.292;2023-06-26T13:06:21;32.40;72.70
73643;DHT22;61938;48.652;9.292;2023-06-26T13:08:46;32.50;74.00
73643;DHT22;61938;48.652;9.292;2023-06-26T13:11:12;32.60;72.60
73643;DHT22;61938;48.652;9.292;2023-06-26T13:13:37;32.80;73.50
73643;DHT22;61938;48.652;9.292;2023-06-26T13:16:03;32.70;73.50
73643;DHT22;61938;48.652;9.292;2023-06-26T13:18:28;32.70;75.10
73643;DHT22;61938;48.652;9.292;2023-06-26T13:20:54;33.00;73.40
73643;DHT22;61938;48.652;9.292;2023-06-26T13:23:19;33.10;73.30
73643;DHT22;61938;48.652;9.292;2023-06-26T13:25:45;33.00;71.60
73643;DHT22;61938;48.652;9.292;2023-06-26T13:28:11;32.50;72.60
73643;DHT22;61938;48.652;9.292;2023-06-26T13:30:36;32.40;72.00
73643;DHT22;61938;48.652;9.292;2023-06-26T13:33:02;32.50;73.80
73643;DHT22;61938;48.652;9.292;2023-06-26T13:35:28;32.70;72.40
73643;DHT22;61938;48.652;9.292;2023-06-26T13:37:53;32.70;73.60
73643;DHT22;61938;48.652;9.292;2023-06-26T13:40:19;33.00;74.10
73643;DHT22;61938;48.652;9.292;2023-06-26T13:42:44;33.00;72.70
73643;DHT22;61938;48.652;9.292;2023-06-26T13:45:10;32.90;73.50
73643;DHT22;61938;48.652;9.292;2023-06-26T13:47:37;32.90;74.10
73643;DHT22;61938;48.652;9.292;2023-06-26T13:50:07;32.70;72.30
73643;DHT22;61938;48.652;9.292;2023-06-26T13:52:33;32.70;72.10
73643;DHT22;61938;48.652;9.292;2023-06-26T13:54:58;32.70;73.60
73643;DHT22;61938;48.652;9.292;2023-06-26T13:57:24;32.80;71.80
73643;DHT22;61938;48.652;9.292;2023-06-26T13:59:49;32.70;71.60
73643;DHT22;61938;48.652;9.292;2023-06-26T14:02:15;32.40;70.80
73643;DHT22;61938;48.652;9.292;2023-06-26T14:04:40;32.10;71.90
73643;DHT22;61938;48.652;9.292;2023-06-26T14:07:07;31.90;72.30
73643;DHT22;61938;48.652;9.292;2023-06-26T14:09:33;31.80;72.20
73643;DHT22;61938;48.652;9.292;2023-06-26T14:11:58;32.00;73.60
73643;DHT22;61938;48.652;9.292;2023-06-26T14:14:24;31.70;70.60
73643;DHT22;61938;48.652;9.292;2023-06-26T14:16:50;31.90;72.60
73643;DHT22;61938;48.652;9.292;2023-06-26T14:19:16;31.80;70.70
73643;DHT22;61938;48.652;9.292;2023-06-26T14:21:42;31.40;70.30
73643;DHT22;61938;48.652;9.292;2023-06-26T14:24:08;31.20;71.10
73643;DHT22;61938;48.652;9.292;2023-06-26T14:26:33;31.50;70.90
73643;DHT22;61938;48.652;9.292;2023-06-26T14:29:00;31.20;71.20
73643;DHT22;61938;48.652;9.292;2023-06-26T14:31:26;31.30;72.50
73643;DHT22;61938;48.652;9.292;2023-06-26T14:33:51;31.10;72.20
73643;DHT22;61938;48.652;9.292;2023-06-26T14:36:17;30.90;72.70
73643;DHT22;61938;48.652;9.292;2023-06-26T14:38:43;30.90;71.80
73643;DHT22;61938;48.652;9.292;2023-06-26T14:41:08;31.00;71.90
73643;DHT22;61938;48.652;9.292;2023-06-26T14:43:34;31.50;71.40
73643;DHT22;61938;48.652;9.292;2023-06-26T14:45:59;30.80;70.80
73643;DHT22;61938;48.652;9.292;2023-06-26T14:48:25;30.90;71.10
73643;DHT22;61938;48.652;9.292;2023-06-26T14:50:50;31.10;70.60
73643;DHT22;61938;48.652;9.292;2023-06-26T14:53:17;31.20;67.70
73643;DHT22;61938;48.652;9.292;2023-06-26T14:55:42;31.10;68.50
73643;DHT22;61938;48.652;9.292;2023-06-26T14:58:08;31.00;67.70
73643;DHT22;61938;48.652;9.292;2023-06-26T15:00:33;30.90;68.20
73643;DHT22;61938;48.652;9.292;2023-06-26T15:02:59;30.00;68.20
73643;DHT22;61938;48.652;9.292;2023-06-26T15:05:24;30.90;69.50
73643;DHT22;61938;48.652;9.292;2023-06-26T15:07:50;30.90;70.00
73643;DHT22;61938;48.652;9.292;2023-06-26T15:10:16;30.80;70.40
73643;DHT22;61938;48.652;9.292;2023-06-26T15:12:42;30.80;69.60
73643;DHT22;61938;48.652;9.292;2023-06-26T15:15:09;30.70;69.80
73643;DHT22;61938;48.652;9.292;2023-06-26T15:17:34;30.60;69.60
73643;DHT22;61938;48.652;9.292;2023-06-26T15:20:00;30.50;68.10
73643;DHT22;61938;48.652;9.292;2023-06-26T15:22:28;30.70;69.30
73643;DHT22;61938;48.652;9.292;2023-06-26T15:24:54;30.20;67.70
73643;DHT22;61938;48.652;9.292;2023-06-26T15:27:19;30.10;68.10
73643;DHT22;61938;48.652;9.292;2023-06-26T15:29:45;30.10;70.20
73643;DHT22;61938;48.652;9.292;2023-06-26T15:32:10;30.00;68.80
73643;DHT22;61938;48.652;9.292;2023-06-26T15:34:36;29.80;69.20
73643;DHT22;61938;48.652;9.292;2023-06-26T15:37:02;29.60;70.40